Time;durP1;ratioP1;P1;durP2;ratioP2;P2;SDS_P1;SDS_P2;PMS_P1;PMS_P2;Temp;Humidity;BMP_temperature;BMP_pressure;BME280_temperature;BME280_humidity;BME280_pressure;Samples;Min_cycle;Max_cycle;Signal;HPM_P1;HPM_P2
2023/08/25 00:00:39;;;;;;;1.65;0.95;;;18.10;99.90;;;;;;5107824;28;20086;-77
2023/08/25 00:03:05;;;;;;;1.00;0.80;;;18.10;99.90;;;;;;5109162;28;20165;-76
2023/08/25 00:05:40;;;;;;;11.30;1.67;;;18.10;99.90;;;;;;5107418;28;20523;-77
2023/08/25 00:08:06;;;;;;;0.88;0.75;;;18.10;99.90;;;;;;5099458;28;20394;-77
2023/08/25 00:10:33;;;;;;;2.72;1.95;;;18.10;99.90;;;;;;5113225;28;20132;-76
2023/08/25 00:12:59;;;;;;;0.77;0.68;;;18.00;99.90;;;;;;5105251;28;20470;-77
2023/08/25 00:15:24;;;;;;;1.52;1.35;;;18.10;99.90;;;;;;5105307;28;20113;-77
2023/08/25 00:17:53;;;;;;;1.52;1.02;;;18.10;99.90;;;;;;5106583;28;20050;-76
2023/08/25 00:20:19;;;;;;;1.35;1.10;;;18.10;99.90;;;;;;5095801;28;20080;-77
2023/08/25 00:22:44;;;;;;;0.52;0.50;;;18.10;99.90;;;;;;5102360;28;20039;-76
2023/08/25 00:25:10;;;;;;;0.52;0.52;;;18.10;99.90;;;;;;5100605;28;20469;-77
2023/08/25 00:27:36;;;;;;;0.73;0.73;;;18.20;99.90;;;;;;5106357;28;20075;-74
2023/08/25 00:30:02;;;;;;;1.00;0.88;;;18.10;99.90;;;;;;5091629;28;20044;-76
2023/08/25 00:32:28;;;;;;;2.40;1.10;;;18.20;99.90;;;;;;5108350;28;20051;-76
2023/08/25 00:34:54;;;;;;;1.88;0.85;;;18.10;99.90;;;;;;5108067;27;20043;-77
2023/08/25 00:37:19;;;;;;;1.02;0.93;;;18.10;99.90;;;;;;5104619;28;20096;-77
2023/08/25 00:39:45;;;;;;;0.63;0.63;;;18.20;99.90;;;;;;5104121;28;20119;-75
2023/08/25 00:42:11;;;;;;;1.70;1.27;;;18.30;99.90;;;;;;5104443;28;20082;-77
2023/08/25 00:44:37;;;;;;;1.05;0.88;;;18.30;99.90;;;;;;5108503;28;20504;-77
2023/08/25 00:47:03;;;;;;;1.10;1.00;;;18.40;99.90;;;;;;5108091;28;20028;-76
2023/08/25 00:49:29;;;;;;;1.65;1.35;;;18.40;99.90;;;;;;5107880;28;20131;-74
2023/08/25 00:51:56;;;;;;;1.45;1.00;;;18.50;99.90;;;;;;5100309;28;20047;-77
2023/08/25 00:54:25;;;;;;;1.05;0.60;;;18.40;99.90;;;;;;5105607;28;20081;-77
2023/08/25 00:56:51;;;;;;;1.30;0.77;;;18.30;99.90;;;;;;5092620;28;20076;-76
2023/08/25 00:59:17;;;;;;;1.40;1.05;;;18.20;99.90;;;;;;5101221;28;20086;-77
2023/08/25 01:01:45;;;;;;;0.55;0.43;;;18.30;99.90;;;;;;5101685;28;20441;-76
2023/08/25 01:04:11;;;;;;;0.90;0.90;;;18.40;99.90;;;;;;5104384;28;20439;-74
2023/08/25 01:06:37;;;;;;;0.85;0.85;;;18.40;99.90;;;;;;5111752;28;20044;-74
2023/08/25 01:09:04;;;;;;;1.00;0.75;;;18.50;99.90;;;;;;5099378;28;20058;-77
2023/08/25 01:11:58;;;;;;;1.48;1.33;;;18.50;99.90;;;;;;5078692;28;20048;-74
2023/08/25 01:14:36;;;;;;;1.00;0.93;;;18.60;99.90;;;;;;5106549;28;20083;-75
2023/08/25 01:17:17;;;;;;;1.38;1.20;;;18.70;99.90;;;;;;5095956;28;20390;-75
2023/08/25 01:20:06;;;;;;;1.85;1.55;;;18.70;99.90;;;;;;5104948;28;20048;-75
2023/08/25 01:23:14;;;;;;;0.88;0.85;;;18.70;99.90;;;;;;5099295;28;20051;-75
2023/08/25 01:25:40;;;;;;;3.00;1.75;;;18.70;99.90;;;;;;5097592;28;20043;-75
2023/08/25 01:28:06;;;;;;;1.65;0.77;;;18.60;99.90;;;;;;5102120;28;20036;-75
2023/08/25 01:30:34;;;;;;;1.50;0.82;;;18.50;99.90;;;;;;5110112;28;20048;-76
2023/08/25 01:33:03;;;;;;;0.57;0.52;;;18.50;99.90;;;;;;5104940;28;20119;-76
2023/08/25 01:35:38;;;;;;;2.75;1.35;;;18.30;99.90;;;;;;5106390;28;20046;-77
2023/08/25 01:38:16;;;;;;;1.58;1.40;;;18.20;99.90;;;;;;5105289;28;20422;-75
2023/08/25 01:40:52;;;;;;;0.70;0.70;;;18.10;99.90;;;;;;5107256;28;20390;-76
2023/08/25 01:43:24;;;;;;;0.90;0.77;;;18.00;99.90;;;;;;5105098;28;20398;-75
2023/08/25 01:45:52;;;;;;;0.90;0.77;;;18.00;99.90;;;;;;5100153;28;20033;-76
2023/08/25 01:48:18;;;;;;;1.35;1.25;;;17.90;99.90;;;;;;5103461;28;20500;-76
2023/08/25 01:50:44;;;;;;;1.88;1.50;;;17.90;99.90;;;;;;5100704;28;20035;-76
2023/08/25 01:53:10;;;;;;;2.15;1.23;;;17.90;99.90;;;;;;5106932;28;20486;-76
2023/08/25 01:55:35;;;;;;;3.60;2.38;;;17.90;99.90;;;;;;5104182;28;20074;-76
2023/08/25 01:58:02;;;;;;;2.85;1.70;;;17.90;99.90;;;;;;5098555;28;20038;-76
2023/08/25 02:00:28;;;;;;;1.55;0.93;;;17.90;99.90;;;;;;5100581;28;20474;-76
2023/08/25 02:02:55;;;;;;;2.95;1.30;;;17.90;99.90;;;;;;5099587;28;20065;-76
2023/08/25 02:05:21;;;;;;;2.80;1.98;;;17.90;99.90;;;;;;5106535;28;20047;-76
2023/08/25 02:07:47;;;;;;;1.17;1.08;;;17.90;99.90;;;;;;5081650;28;20116;-75
2023/08/25 02:10:12;;;;;;;3.78;1.33;;;18.00;99.90;;;;;;5106573;28;20039;-75
2023/08/25 02:12:38;;;;;;;2.53;1.65;;;18.00;99.90;;;;;;5105647;28;20474;-75
2023/08/25 02:15:04;;;;;;;1.33;1.15;;;17.90;99.90;;;;;;5103231;28;20035;-76
2023/08/25 02:17:30;;;;;;;3.47;2.05;;;17.90;99.90;;;;;;5103072;28;20036;-76
2023/08/25 02:19:56;;;;;;;2.70;1.77;;;18.00;99.90;;;;;;5104679;28;20044;-75
2023/08/25 02:22:21;;;;;;;2.17;1.65;;;18.00;99.90;;;;;;5106362;28;20176;-75
2023/08/25 02:24:47;;;;;;;3.20;1.67;;;18.00;99.90;;;;;;5102272;28;20425;-76
2023/08/25 02:27:13;;;;;;;1.88;1.23;;;17.90;99.90;;;;;;5101440;28;20111;-75
2023/08/25 02:29:38;;;;;;;1.60;1.23;;;17.80;99.90;;;;;;5102448;28;20044;-75
2023/08/25 02:32:04;;;;;;;1.48;1.02;;;17.80;99.90;;;;;;5093279;28;20075;-75
2023/08/25 02:34:30;;;;;;;2.03;1.83;;;17.70;99.90;;;;;;5102988;28;20044;-76
2023/08/25 02:36:55;;;;;;;1.35;1.23;;;17.60;99.90;;;;;;5088878;28;20036;-75
2023/08/25 02:39:21;;;;;;;1.33;1.15;;;17.60;99.90;;;;;;5106386;28;20046;-75
2023/08/25 02:41:47;;;;;;;2.05;1.38;;;17.70;99.90;;;;;;5102380;28;20079;-75
2023/08/25 02:44:12;;;;;;;1.63;1.52;;;17.80;99.90;;;;;;5104346;28;20039;-76
2023/08/25 02:46:39;;;;;;;2.55;1.10;;;17.80;99.90;;;;;;5102058;28;20039;-75
2023/08/25 02:49:05;;;;;;;1.92;1.58;;;17.80;99.90;;;;;;5106331;28;20106;-76
2023/08/25 02:51:31;;;;;;;1.42;1.27;;;18.10;99.90;;;;;;5102616;28;20036;-76
2023/08/25 02:53:56;;;;;;;0.85;0.63;;;17.70;99.90;;;;;;5096013;28;20044;-75
2023/08/25 02:56:22;;;;;;;7.97;2.88;;;17.90;99.90;;;;;;5098731;28;20099;-75
2023/08/25 02:58:48;;;;;;;2.20;1.65;;;17.70;99.90;;;;;;5105853;28;20036;-75
2023/08/25 03:01:13;;;;;;;1.50;1.15;;;17.60;99.90;;;;;;5103759;28;20046;-76
2023/08/25 03:03:39;;;;;;;4.65;1.67;;;17.60;99.90;;;;;;5103888;28;20070;-75
2023/08/25 03:06:05;;;;;;;2.08;1.80;;;17.60;99.90;;;;;;5107852;28;20046;-75
2023/08/25 03:08:31;;;;;;;2.22;1.95;;;17.50;99.90;;;;;;5105218;28;20039;-75
2023/08/25 03:10:57;;;;;;;4.25;2.63;;;17.50;99.90;;;;;;5101317;28;20108;-75
2023/08/25 03:13:22;;;;;;;3.35;2.38;;;17.60;99.90;;;;;;5105772;28;20510;-76
2023/08/25 03:15:50;;;;;;;5.40;2.28;;;17.50;99.90;;;;;;5106694;28;20059;-76
2023/08/25 03:18:16;;;;;;;2.78;1.55;;;17.50;99.90;;;;;;5106741;28;20055;-75
2023/08/25 03:20:41;;;;;;;3.13;1.27;;;17.40;99.90;;;;;;5103488;28;20041;-75
2023/08/25 03:23:07;;;;;;;2.88;1.58;;;17.40;99.90;;;;;;5112776;28;20040;-76
2023/08/25 03:25:37;;;;;;;1.42;1.33;;;17.40;99.90;;;;;;5106380;28;20055;-76
2023/08/25 03:28:03;;;;;;;1.77;1.60;;;17.50;99.90;;;;;;5106261;28;20071;-76
2023/08/25 03:30:29;;;;;;;0.95;0.80;;;17.40;99.90;;;;;;5104740;28;20043;-75
2023/08/25 03:32:55;;;;;;;2.58;1.92;;;17.40;99.90;;;;;;5104079;28;20394;-75
2023/08/25 03:35:20;;;;;;;3.55;1.60;;;17.40;99.90;;;;;;5103056;28;20123;-75
2023/08/25 03:37:46;;;;;;;1.80;1.67;;;17.30;99.90;;;;;;5109372;28;20039;-75
2023/08/25 03:40:11;;;;;;;2.92;1.42;;;17.20;99.90;;;;;;5107562;28;20049;-76
2023/08/25 03:42:37;;;;;;;1.55;1.45;;;17.30;99.90;;;;;;5101180;28;20161;-75
2023/08/25 03:45:05;;;;;;;1.98;1.48;;;17.30;99.90;;;;;;5106510;28;20075;-75
2023/08/25 03:47:30;;;;;;;2.67;1.38;;;17.30;99.90;;;;;;5109131;28;20040;-75
2023/08/25 03:49:56;;;;;;;2.03;1.55;;;17.70;99.90;;;;;;5109376;28;20038;-76
2023/08/25 03:52:22;;;;;;;1.48;1.38;;;17.50;99.90;;;;;;5106891;28;20036;-75
2023/08/25 03:54:47;;;;;;;1.10;1.05;;;17.60;99.90;;;;;;5100180;28;20082;-76
2023/08/25 03:57:13;;;;;;;2.50;1.88;;;17.70;99.90;;;;;;5106102;28;20379;-75
2023/08/25 03:59:39;;;;;;;0.90;0.82;;;17.80;99.90;;;;;;5105876;28;20124;-75
2023/08/25 04:02:04;;;;;;;6.68;3.35;;;17.80;99.90;;;;;;5102194;28;20040;-75
2023/08/25 04:04:34;;;;;;;1.33;1.23;;;17.90;99.90;;;;;;5100466;28;20047;-76
2023/08/25 04:06:59;;;;;;;2.42;1.35;;;18.00;99.90;;;;;;5102272;28;20043;-76
2023/08/25 04:09:25;;;;;;;5.18;1.95;;;18.00;99.90;;;;;;5104920;28;20036;-76
2023/08/25 04:11:53;;;;;;;4.38;1.58;;;18.00;99.90;;;;;;5099930;28;20405;-76
2023/08/25 04:14:18;;;;;;;0.43;0.43;;;18.00;99.90;;;;;;5108554;28;20474;-76
2023/08/25 04:16:45;;;;;;;1.17;1.08;;;18.00;99.90;;;;;;5108814;28;20165;-75
2023/08/25 04:19:10;;;;;;;4.80;3.40;;;18.00;99.90;;;;;;5108629;28;20035;-75
2023/08/25 04:21:36;;;;;;;2.90;2.10;;;18.10;99.90;;;;;;5105418;28;20043;-75
2023/08/25 04:24:02;;;;;;;5.60;2.45;;;18.00;99.90;;;;;;5103215;28;20036;-75
2023/08/25 04:26:28;;;;;;;1.35;1.20;;;18.00;99.90;;;;;;5104198;28;20061;-76
2023/08/25 04:28:54;;;;;;;1.27;1.17;;;18.00;99.90;;;;;;5106638;28;20040;-76
2023/08/25 04:31:19;;;;;;;1.25;1.15;;;18.10;99.90;;;;;;5106653;28;20054;-75
2023/08/25 04:33:45;;;;;;;3.72;2.42;;;18.10;99.90;;;;;;5108538;28;20039;-75
2023/08/25 04:36:13;;;;;;;3.67;2.60;;;18.10;99.90;;;;;;5105359;28;20496;-75
2023/08/25 04:38:39;;;;;;;7.30;1.48;;;18.20;99.90;;;;;;5105303;28;20048;-75
2023/08/25 04:41:04;;;;;;;2.78;1.85;;;18.20;99.90;;;;;;5098892;28;20043;-75
2023/08/25 04:43:30;;;;;;;4.18;1.70;;;18.20;99.90;;;;;;5101487;28;20032;-75
2023/08/25 04:45:55;;;;;;;6.95;3.75;;;18.20;99.90;;;;;;5100950;28;20047;-75
2023/08/25 04:48:22;;;;;;;1.30;1.20;;;18.20;99.90;;;;;;5107119;28;20028;-75
2023/08/25 04:50:48;;;;;;;1.38;1.10;;;18.20;99.90;;;;;;5104209;28;20052;-75
2023/08/25 04:53:14;;;;;;;2.45;1.83;;;18.30;99.90;;;;;;5104716;28;20033;-75
2023/08/25 04:55:40;;;;;;;3.35;2.55;;;18.30;99.90;;;;;;5112642;28;20173;-74
2023/08/25 04:58:05;;;;;;;1.35;0.90;;;18.30;99.90;;;;;;5111896;28;20039;-77
2023/08/25 05:00:31;;;;;;;4.45;2.92;;;18.30;99.90;;;;;;5107741;28;20051;-75
2023/08/25 05:02:56;;;;;;;2.75;1.95;;;18.30;99.90;;;;;;5098894;28;20110;-75
2023/08/25 05:05:22;;;;;;;2.80;1.58;;;18.30;99.90;;;;;;5101100;28;20032;-75
2023/08/25 05:07:48;;;;;;;3.42;2.70;;;18.30;99.90;;;;;;5102781;28;20117;-75
2023/08/25 05:10:14;;;;;;;7.88;3.78;;;18.30;99.90;;;;;;5102745;28;20112;-75
2023/08/25 05:12:42;;;;;;;3.38;2.20;;;18.40;99.90;;;;;;5093834;28;20048;-75
2023/08/25 05:15:08;;;;;;;5.25;2.05;;;18.40;99.90;;;;;;5099478;28;20351;-75
2023/08/25 05:17:34;;;;;;;9.05;2.72;;;18.40;99.90;;;;;;5099344;28;20040;-75
2023/08/25 05:19:59;;;;;;;2.58;2.08;;;18.40;99.90;;;;;;5096996;28;20077;-75
2023/08/25 05:22:25;;;;;;;3.65;2.40;;;18.50;99.90;;;;;;5102395;28;20047;-75
2023/08/25 05:24:52;;;;;;;3.70;2.55;;;18.50;99.90;;;;;;5101158;28;20061;-75
2023/08/25 05:27:18;;;;;;;3.00;2.47;;;18.60;99.90;;;;;;5099477;28;20134;-75
2023/08/25 05:29:44;;;;;;;3.45;1.83;;;18.60;99.90;;;;;;5099626;28;20139;-75
2023/08/25 05:32:10;;;;;;;1.63;1.52;;;18.60;99.90;;;;;;5105744;28;20082;-75
2023/08/25 05:34:36;;;;;;;2.78;2.33;;;18.70;99.90;;;;;;5098985;28;20068;-74
2023/08/25 05:37:02;;;;;;;3.78;2.13;;;18.70;99.90;;;;;;5101367;28;20062;-74
2023/08/25 05:39:28;;;;;;;3.67;2.20;;;18.70;99.90;;;;;;5105550;28;20043;-75
2023/08/25 05:41:53;;;;;;;10.98;1.80;;;18.70;99.90;;;;;;5104676;28;20039;-74
2023/08/25 05:44:19;;;;;;;3.15;2.58;;;18.80;99.90;;;;;;5102249;28;20031;-74
2023/08/25 05:46:44;;;;;;;1.60;1.50;;;18.90;99.90;;;;;;5099670;28;20032;-74
2023/08/25 05:49:10;;;;;;;5.80;3.80;;;18.90;99.90;;;;;;5102770;28;20063;-74
2023/08/25 05:51:36;;;;;;;6.63;3.08;;;19.00;99.90;;;;;;5105110;28;20043;-75
2023/08/25 05:54:01;;;;;;;1.88;1.73;;;19.00;99.90;;;;;;5104806;28;20039;-75
2023/08/25 05:56:27;;;;;;;5.32;2.55;;;19.20;99.90;;;;;;5103310;28;20051;-75
2023/08/25 05:58:54;;;;;;;3.35;3.05;;;19.10;99.90;;;;;;5098861;28;20061;-74
2023/08/25 06:01:20;;;;;;;2.00;1.50;;;19.20;99.90;;;;;;5105079;28;20122;-74
2023/08/25 06:03:46;;;;;;;4.90;2.50;;;19.10;99.90;;;;;;5101722;28;20040;-74
2023/08/25 06:06:12;;;;;;;7.05;2.72;;;19.30;99.90;;;;;;5095903;28;20063;-74
2023/08/25 06:08:38;;;;;;;5.72;3.13;;;19.40;99.90;;;;;;5103221;28;20054;-74
2023/08/25 06:11:04;;;;;;;4.43;3.15;;;19.50;99.90;;;;;;5101951;28;20512;-74
2023/08/25 06:13:29;;;;;;;3.17;2.53;;;19.60;99.90;;;;;;5089700;28;20125;-75
2023/08/25 06:15:55;;;;;;;4.13;3.15;;;19.60;99.90;;;;;;5093669;28;20505;-75
2023/08/25 06:18:21;;;;;;;8.30;2.33;;;19.70;99.90;;;;;;5098876;28;20513;-75
2023/08/25 06:20:52;;;;;;;6.85;3.45;;;19.80;99.90;;;;;;5102755;28;20146;-74
2023/08/25 06:23:19;;;;;;;4.97;3.13;;;19.90;99.90;;;;;;5101312;28;20055;-74
2023/08/25 06:25:45;;;;;;;3.88;2.90;;;20.00;99.90;;;;;;5102023;28;20043;-74
2023/08/25 06:28:12;;;;;;;4.45;2.25;;;20.10;99.90;;;;;;5104457;28;20028;-74
2023/08/25 06:30:40;;;;;;;2.55;1.98;;;20.20;99.90;;;;;;5105944;28;20054;-75
2023/08/25 06:33:06;;;;;;;4.43;3.58;;;20.10;91.70;;;;;;5103583;28;20059;-75
2023/08/25 06:35:31;;;;;;;3.33;2.42;;;20.30;99.90;;;;;;5104440;28;20043;-75
2023/08/25 06:37:58;;;;;;;2.65;2.35;;;20.50;90.00;;;;;;5104153;28;20123;-75
2023/08/25 06:40:24;;;;;;;5.05;2.97;;;20.60;24.40;;;;;;5101479;28;20078;-75
2023/08/25 06:42:49;;;;;;;5.95;3.55;;;20.70;1.00;;;;;;5101385;28;20040;-75
2023/08/25 06:45:15;;;;;;;2.13;1.88;;;20.90;1.00;;;;;;5103048;28;20032;-75
2023/08/25 06:47:41;;;;;;;4.30;2.47;;;21.10;1.00;;;;;;5104241;28;20031;-75
2023/08/25 06:50:06;;;;;;;4.72;2.28;;;21.40;99.90;;;;;;5103184;28;20504;-76
2023/08/25 06:52:32;;;;;;;2.70;2.00;;;21.60;99.90;;;;;;5101073;28;20508;-76
2023/08/25 06:54:58;;;;;;;6.20;2.42;;;21.70;99.90;;;;;;5100996;28;20384;-76
2023/08/25 06:57:24;;;;;;;5.00;3.45;;;21.70;1.00;;;;;;5102564;28;20036;-76
2023/08/25 06:59:50;;;;;;;4.47;3.30;;;21.60;99.90;;;;;;5104306;28;20039;-76
2023/08/25 07:02:16;;;;;;;2.63;2.20;;;21.50;99.90;;;;;;5102469;28;20046;-76
2023/08/25 07:04:42;;;;;;;3.13;2.72;;;21.50;1.00;;;;;;5097726;28;20414;-76
2023/08/25 07:07:08;;;;;;;6.60;3.70;;;21.40;99.90;;;;;;5097810;28;20044;-76
2023/08/25 07:09:35;;;;;;;6.43;4.20;;;21.40;99.90;;;;;;5090096;28;20040;-76
2023/08/25 07:12:00;;;;;;;8.82;3.42;;;21.40;99.90;;;;;;5100983;28;20055;-76
2023/08/25 07:14:29;;;;;;;4.80;3.03;;;21.60;99.90;;;;;;5101148;28;20043;-76
2023/08/25 07:16:54;;;;;;;4.53;2.65;;;21.60;99.90;;;;;;5096806;28;20478;-76
2023/08/25 07:19:20;;;;;;;4.15;2.50;;;21.80;99.90;;;;;;5100597;28;20044;-76
2023/08/25 07:21:45;;;;;;;3.85;2.65;;;21.70;99.90;;;;;;5101569;28;20040;-76
2023/08/25 07:24:11;;;;;;;8.60;3.08;;;21.70;99.90;;;;;;5104196;28;20031;-76
2023/08/25 07:26:37;;;;;;;6.43;4.10;;;21.70;80.50;;;;;;5104065;28;20043;-76
2023/08/25 07:29:02;;;;;;;3.88;2.00;;;21.80;99.90;;;;;;5099104;28;20036;-76
2023/08/25 07:31:28;;;;;;;4.72;3.40;;;22.00;1.00;;;;;;5098426;28;20324;-76
2023/08/25 07:33:54;;;;;;;2.65;1.55;;;22.10;99.90;;;;;;5099170;28;20044;-76
2023/08/25 07:36:19;;;;;;;7.43;3.40;;;22.20;99.90;;;;;;5101995;28;20048;-76
2023/08/25 07:38:45;;;;;;;4.03;1.95;;;22.40;99.90;;;;;;5101917;28;20100;-76
2023/08/25 07:41:17;;;;;;;5.35;2.70;;;22.80;99.90;;;;;;5099788;28;20486;-76
2023/08/25 07:43:43;;;;;;;4.18;3.13;;;23.20;43.40;;;;;;5100132;28;20387;-76
2023/08/25 07:46:08;;;;;;;4.15;3.40;;;23.20;46.40;;;;;;5100619;28;20059;-76
2023/08/25 07:48:34;;;;;;;3.50;2.70;;;23.00;99.90;;;;;;5100465;28;20028;-76
2023/08/25 07:51:00;;;;;;;6.88;3.38;;;23.10;99.90;;;;;;5100679;28;20036;-76
2023/08/25 07:53:25;;;;;;;4.22;3.30;;;23.00;99.90;;;;;;5103067;28;20037;-76
2023/08/25 07:55:51;;;;;;;4.38;2.40;;;22.70;50.60;;;;;;5103829;28;20040;-76
2023/08/25 07:58:19;;;;;;;3.00;1.40;;;22.60;99.90;;;;;;5094044;28;20052;-76
2023/08/25 08:00:44;;;;;;;2.40;2.15;;;22.70;1.00;;;;;;5105481;28;20043;-76
2023/08/25 08:03:10;;;;;;;1.75;1.65;;;22.80;99.90;;;;;;5107358;28;20161;-76
2023/08/25 08:05:36;;;;;;;8.10;4.13;;;22.90;99.90;;;;;;5105696;28;20064;-77
2023/08/25 08:08:02;;;;;;;3.63;2.70;;;23.10;99.90;;;;;;5104499;28;20093;-77
2023/08/25 08:10:29;;;;;;;5.43;3.42;;;23.20;7.10;;;;;;5103983;28;20542;-77
2023/08/25 08:12:56;;;;;;;5.15;3.25;;;23.30;6.60;;;;;;5106986;28;20378;-77
2023/08/25 08:15:21;;;;;;;5.40;3.97;;;23.40;99.90;;;;;;5107147;28;20580;-77
2023/08/25 08:17:47;;;;;;;3.22;2.70;;;23.70;76.30;;;;;;5104880;28;20114;-77
2023/08/25 08:20:13;;;;;;;9.20;4.90;;;23.80;1.00;;;;;;5104125;28;20482;-77
2023/08/25 08:22:40;;;;;;;8.85;5.60;;;23.70;1.00;;;;;;5103796;28;20051;-77
2023/08/25 08:25:10;;;;;;;5.53;3.08;;;23.50;1.00;;;;;;5107119;28;20031;-77
2023/08/25 08:27:36;;;;;;;6.55;3.22;;;23.60;43.90;;;;;;5106741;28;20118;-77
2023/08/25 08:30:03;;;;;;;6.43;3.70;;;23.60;1.00;;;;;;5104145;28;20401;-77
2023/08/25 08:32:28;;;;;;;6.65;4.53;;;23.60;99.90;;;;;;5103358;28;20072;-77
2023/08/25 08:34:54;;;;;;;9.75;3.72;;;23.40;99.90;;;;;;5103693;28;20079;-76
2023/08/25 08:37:19;;;;;;;3.80;2.30;;;23.50;1.00;;;;;;5106681;28;20097;-76
2023/08/25 08:39:45;;;;;;;3.90;2.53;;;24.40;99.90;;;;;;5106774;28;20498;-76
2023/08/25 08:42:14;;;;;;;7.57;3.58;;;25.60;99.90;;;;;;5104739;28;20486;-76
2023/08/25 08:44:48;;;;;;;4.80;2.47;;;26.10;99.90;;;;;;5103205;28;20032;-77
2023/08/25 08:47:16;;;;;;;2.67;2.15;;;26.00;48.90;;;;;;5105040;28;20085;-77
2023/08/25 08:49:44;;;;;;;2.85;2.20;;;25.80;1.00;;;;;;5106486;28;20043;-77
2023/08/25 08:52:10;;;;;;;3.88;2.60;;;25.50;99.90;;;;;;5105965;27;20035;-77
2023/08/25 08:54:38;;;;;;;4.25;2.83;;;25.20;99.90;;;;;;5103061;28;20482;-77
2023/08/25 08:57:04;;;;;;;5.25;2.17;;;24.80;99.90;;;;;;5103055;28;20042;-77
2023/08/25 08:59:30;;;;;;;3.05;2.38;;;24.70;37.60;;;;;;5105265;28;20438;-77
2023/08/25 09:01:58;;;;;;;5.18;2.72;;;24.60;99.90;;;;;;5106292;28;20083;-77
2023/08/25 09:04:24;;;;;;;2.35;1.77;;;24.40;44.20;;;;;;5105520;28;20565;-77
2023/08/25 09:06:51;;;;;;;2.75;1.95;;;24.30;99.90;;;;;;5106906;28;20158;-77
2023/08/25 09:09:19;;;;;;;4.18;2.70;;;24.10;1.00;;;;;;5106206;28;20049;-77
2023/08/25 09:11:48;;;;;;;15.98;4.78;;;23.90;99.90;;;;;;5102520;28;20066;-77
2023/08/25 09:14:23;;;;;;;2.47;1.83;;;23.70;1.60;;;;;;5102535;28;20047;-77
2023/08/25 09:16:49;;;;;;;1.77;1.67;;;23.40;1.00;;;;;;5102706;28;20039;-77
2023/08/25 09:19:16;;;;;;;5.97;3.38;;;23.30;99.90;;;;;;5102813;28;20380;-77
2023/08/25 09:21:46;;;;;;;3.65;1.83;;;23.20;99.90;;;;;;5103363;28;20052;-77
2023/08/25 09:24:18;;;;;;;7.80;3.03;;;23.20;99.90;;;;;;5105802;28;20032;-77
2023/08/25 09:26:43;;;;;;;10.75;3.83;;;23.10;99.90;;;;;;5105426;28;20043;-77
2023/08/25 09:29:12;;;;;;;3.55;2.60;;;23.00;99.90;;;;;;5102537;28;20508;-77
2023/08/25 09:31:37;;;;;;;19.35;3.63;;;22.90;99.90;;;;;;5102328;28;20066;-77
2023/08/25 09:34:05;;;;;;;5.30;2.92;;;22.90;99.90;;;;;;5104296;28;20105;-77
2023/08/25 09:36:32;;;;;;;1.02;0.93;;;23.00;99.90;;;;;;5105543;27;20040;-77
2023/08/25 09:38:58;;;;;;;2.92;1.50;;;23.30;48.80;;;;;;5104811;28;20104;-77
2023/08/25 09:41:28;;;;;;;4.93;2.72;;;23.50;99.90;;;;;;5102406;28;20047;-77
2023/08/25 09:43:59;;;;;;;1.95;1.67;;;23.70;99.90;;;;;;5102123;28;20466;-77
2023/08/25 09:46:31;;;;;;;4.40;1.90;;;24.00;99.90;;;;;;5093958;28;20036;-77
2023/08/25 09:49:09;;;;;;;2.40;2.05;;;24.50;99.90;;;;;;5100840;28;20036;-77
2023/08/25 09:51:39;;;;;;;1.88;1.45;;;24.90;1.00;;;;;;5101888;28;20040;-77
2023/08/25 09:54:10;;;;;;;6.20;4.85;;;25.10;1.00;;;;;;5110147;28;20051;-77
2023/08/25 09:56:37;;;;;;;1.33;1.10;;;25.20;1.00;;;;;;5093791;28;20076;-77
2023/08/25 09:59:04;;;;;;;1.55;1.38;;;25.20;99.90;;;;;;5102184;28;20118;-77
2023/08/25 10:01:34;;;;;;;6.85;2.75;;;24.90;99.90;;;;;;5103583;28;20040;-77
2023/08/25 10:04:02;;;;;;;3.60;2.60;;;24.80;99.90;;;;;;5104938;28;20050;-77
2023/08/25 10:06:31;;;;;;;2.38;1.88;;;24.50;99.90;;;;;;5104089;28;20054;-77
2023/08/25 10:08:57;;;;;;;3.03;2.45;;;24.40;99.90;;;;;;5101774;28;20490;-76
2023/08/25 10:11:29;;;;;;;5.57;2.72;;;24.30;99.90;;;;;;5101599;28;20448;-76
2023/08/25 10:13:56;;;;;;;5.05;2.63;;;24.30;99.90;;;;;;5093602;28;20044;-76
2023/08/25 10:16:25;;;;;;;3.83;1.75;;;24.40;99.90;;;;;;5101244;28;20483;-76
2023/08/25 10:18:58;;;;;;;2.20;1.88;;;24.60;99.90;;;;;;5104105;28;20518;-76
2023/08/25 10:21:25;;;;;;;5.22;2.10;;;24.90;99.90;;;;;;5104655;28;20494;-76
2023/08/25 10:23:53;;;;;;;1.90;1.67;;;25.30;99.90;;;;;;5102777;28;20502;-76
2023/08/25 10:26:21;;;;;;;2.22;1.25;;;25.50;99.90;;;;;;5101288;28;20062;-76
2023/08/25 10:28:47;;;;;;;4.07;2.20;;;25.40;99.90;;;;;;5101540;28;20071;-76
2023/08/25 10:31:14;;;;;;;1.15;1.05;;;25.30;99.90;;;;;;5104521;28;20120;-76
2023/08/25 10:33:50;;;;;;;1.67;1.40;;;25.30;99.90;;;;;;5104922;28;20043;-76
2023/08/25 10:36:18;;;;;;;1.50;1.10;;;25.50;99.90;;;;;;5093173;28;20084;-77
2023/08/25 10:38:51;;;;;;;0.98;0.88;;;25.70;99.90;;;;;;5101251;28;20122;-77
2023/08/25 10:41:18;;;;;;;3.28;2.20;;;25.70;99.90;;;;;;5104193;28;20044;-77
2023/08/25 10:43:53;;;;;;;1.65;0.82;;;25.50;99.90;;;;;;5104432;28;20328;-77
2023/08/25 10:46:29;;;;;;;2.63;1.52;;;25.30;99.90;;;;;;5101739;28;20036;-77
2023/08/25 10:49:06;;;;;;;1.65;1.13;;;25.30;99.90;;;;;;5100327;28;20093;-77
2023/08/25 10:51:33;;;;;;;4.57;2.58;;;25.30;99.90;;;;;;5093117;28;20090;-77
2023/08/25 10:53:59;;;;;;;5.65;2.42;;;25.00;99.90;;;;;;5101037;28;20044;-77
2023/08/25 10:56:26;;;;;;;3.35;1.27;;;25.00;99.90;;;;;;5102950;28;20134;-77
2023/08/25 10:59:06;;;;;;;3.13;2.42;;;24.80;99.90;;;;;;5104338;28;20040;-77
2023/08/25 11:01:37;;;;;;;1.85;1.55;;;24.60;99.90;;;;;;5101810;28;20039;-76
2023/08/25 11:04:12;;;;;;;2.08;1.70;;;24.50;99.90;;;;;;5100963;28;20040;-76
2023/08/25 11:06:49;;;;;;;1.98;1.65;;;24.30;99.90;;;;;;5102476;28;20456;-76
2023/08/25 11:09:20;;;;;;;2.50;2.03;;;24.30;99.90;;;;;;5104405;28;20370;-76
2023/08/25 11:11:47;;;;;;;5.43;3.03;;;24.20;99.90;;;;;;5101116;28;20143;-76
2023/08/25 11:14:15;;;;;;;6.43;3.53;;;24.00;1.00;;;;;;5100914;28;20086;-76
2023/08/25 11:16:41;;;;;;;6.20;2.75;;;23.70;1.00;;;;;;5102056;28;20416;-76
2023/08/25 11:19:10;;;;;;;3.03;2.08;;;23.40;83.00;;;;;;5104138;28;20036;-76
2023/08/25 11:21:36;;;;;;;1.60;1.20;;;23.30;99.90;;;;;;5103798;28;20065;-76
2023/08/25 11:24:02;;;;;;;4.10;1.95;;;23.20;99.90;;;;;;5100887;28;20389;-76
2023/08/25 11:26:28;;;;;;;6.88;1.77;;;23.00;99.90;;;;;;5100814;28;20120;-76
2023/08/25 11:28:54;;;;;;;3.67;2.53;;;22.90;52.60;;;;;;5102592;28;20119;-76
2023/08/25 11:31:21;;;;;;;2.83;2.40;;;22.80;99.90;;;;;;5103998;28;20042;-76
2023/08/25 11:33:48;;;;;;;4.50;2.72;;;22.80;99.90;;;;;;5104272;28;20119;-76
2023/08/25 11:36:15;;;;;;;3.20;1.92;;;22.80;99.90;;;;;;5094332;28;20036;-76
2023/08/25 11:38:42;;;;;;;6.05;4.15;;;22.80;99.90;;;;;;5104807;28;20123;-76
2023/08/25 11:41:10;;;;;;;3.28;2.50;;;22.80;1.00;;;;;;5106473;28;20044;-76
2023/08/25 11:43:39;;;;;;;2.58;1.85;;;22.80;1.00;;;;;;5107765;28;20071;-76
2023/08/25 11:46:05;;;;;;;4.45;2.42;;;22.70;1.00;;;;;;5106973;28;20126;-77
2023/08/25 11:48:33;;;;;;;1.50;1.40;;;22.90;99.90;;;;;;5104577;28;20037;-77
2023/08/25 11:50:59;;;;;;;5.50;2.17;;;23.20;99.90;;;;;;5104379;28;20566;-77
2023/08/25 11:53:24;;;;;;;12.30;5.28;;;23.30;99.90;;;;;;5106893;28;20044;-77
2023/08/25 11:56:03;;;;;;;3.38;2.72;;;23.10;99.90;;;;;;5107609;28;20031;-77
2023/08/25 11:58:30;;;;;;;2.97;2.17;;;23.00;99.90;;;;;;5104968;28;20101;-77
2023/08/25 12:01:14;;;;;;;4.90;2.65;;;23.30;99.90;;;;;;5104189;28;20093;-77
2023/08/25 12:03:44;;;;;;;2.40;2.13;;;23.50;99.90;;;;;;5107520;28;20039;-77
2023/08/25 12:06:10;;;;;;;6.55;2.97;;;23.50;99.90;;;;;;5107416;28;20035;-77
2023/08/25 12:08:39;;;;;;;3.13;2.28;;;23.30;99.90;;;;;;5105437;28;20062;-77
2023/08/25 12:11:09;;;;;;;5.78;2.17;;;22.90;1.00;;;;;;5104000;28;20495;-77
2023/08/25 12:13:37;;;;;;;2.63;2.25;;;22.60;99.90;;;;;;5105214;28;20048;-77
2023/08/25 12:16:03;;;;;;;2.40;2.10;;;22.40;99.90;;;;;;5105685;28;20031;-77
2023/08/25 12:18:37;;;;;;;1.92;1.58;;;22.20;99.90;;;;;;5107085;28;20058;-77
2023/08/25 12:21:04;;;;;;;1.75;1.63;;;21.30;99.90;;;;;;5095978;28;20134;-77
2023/08/25 12:23:40;;;;;;;4.55;2.45;;;21.90;99.90;;;;;;5103925;28;20405;-77
2023/08/25 12:26:09;;;;;;;3.35;1.75;;;21.70;1.00;;;;;;5104427;28;20036;-80
2023/08/25 12:28:35;;;;;;;3.53;2.22;;;21.20;99.90;;;;;;5100318;28;20051;-79
2023/08/25 12:31:01;;;;;;;2.15;1.50;;;20.70;99.90;;;;;;5103826;28;20044;-79
2023/08/25 12:33:28;;;;;;;3.17;1.73;;;20.40;99.90;;;;;;5103826;28;20069;-78
2023/08/25 12:35:53;;;;;;;4.50;1.48;;;20.30;99.90;;;;;;5103773;28;20501;-78
2023/08/25 12:38:19;;;;;;;1.45;1.35;;;20.20;99.90;;;;;;5106780;28;20035;-78
2023/08/25 12:40:45;;;;;;;1.73;1.58;;;20.40;99.90;;;;;;5106746;28;20489;-78
2023/08/25 12:43:11;;;;;;;4.88;3.42;;;20.90;99.90;;;;;;5104778;28;20043;-78
2023/08/25 12:45:36;;;;;;;1.42;1.33;;;21.50;99.90;;;;;;5103786;28;20040;-78
2023/08/25 12:48:03;;;;;;;6.72;4.00;;;21.90;99.90;;;;;;5102293;28;20367;-78